createdAt,value
2019-01-26T00:01:14.664Z,64.13
2019-01-26T00:03:51.441Z,52.83
2019-01-26T00:06:25.175Z,75.47
2019-01-26T00:08:58.799Z,47.67
2019-01-26T00:11:39.840Z,61.80
2019-01-26T00:14:13.463Z,57.50
2019-01-26T00:16:50.091Z,66.77
2019-01-26T00:19:23.722Z,64.47
2019-01-26T00:21:57.651Z,55.30
2019-01-26T00:24:43.216Z,63.07
2019-01-26T00:27:16.949Z,44.20
2019-01-26T00:29:50.865Z,78.43
2019-01-26T00:32:25.516Z,64.23
2019-01-26T00:34:59.149Z,50.00
2019-01-26T00:37:40.983Z,53.97
2019-01-26T00:40:15.059Z,58.83
2019-01-26T00:42:48.789Z,67.03
2019-01-26T00:45:29.647Z,54.43
2019-01-26T00:48:03.381Z,43.77
2019-01-26T00:50:40.968Z,51.20
2019-01-26T00:53:14.626Z,53.87
2019-01-26T00:55:48.405Z,76.10
2019-01-26T00:58:23.743Z,68.33
2019-01-26T01:00:57.683Z,55.57
2019-01-26T01:03:40.722Z,59.17
2019-01-26T01:06:14.423Z,74.87
2019-01-26T01:08:55.575Z,33.57
2019-01-26T01:11:29.204Z,52.20
2019-01-26T01:14:06.066Z,46.20
2019-01-26T01:16:39.776Z,72.03
2019-01-26T01:19:18.182Z,78.70
2019-01-26T01:21:51.849Z,62.60
2019-01-26T01:24:25.648Z,55.33
2019-01-26T01:27:05.671Z,58.20
2019-01-26T01:29:39.418Z,73.67
2019-01-26T01:32:13.185Z,63.03
2019-01-26T01:34:55.005Z,53.23
2019-01-26T01:37:28.644Z,78.60
2019-01-26T01:40:02.417Z,69.73
2019-01-26T01:42:41.178Z,63.27
2019-01-26T01:45:18.029Z,57.47
2019-01-26T01:47:51.699Z,74.23
2019-01-26T01:50:28.458Z,47.13
2019-01-26T01:53:02.193Z,66.70
2019-01-26T01:55:35.957Z,59.87
2019-01-26T01:58:21.675Z,65.70
2019-01-26T02:00:55.305Z,67.87
2019-01-26T02:03:28.967Z,73.77
2019-01-26T02:06:02.674Z,75.60
2019-01-26T02:08:41.278Z,66.67
2019-01-26T02:11:14.907Z,79.40
2019-01-26T02:13:48.592Z,69.47
2019-01-26T02:16:22.354Z,53.73
2019-01-26T02:18:56.059Z,66.50
2019-01-26T02:21:29.828Z,65.00
2019-01-26T02:24:03.613Z,80.87
2019-01-26T02:26:37.293Z,59.43
2019-01-26T02:29:14.294Z,85.43
2019-01-26T02:31:47.917Z,86.17
2019-01-26T02:34:21.546Z,74.00
2019-01-26T02:37:16.541Z,91.73
2019-01-26T02:39:50.274Z,83.80
2019-01-26T02:42:23.970Z,75.27
2019-01-26T02:45:13.885Z,84.23
2019-01-26T02:47:47.981Z,83.93
2019-01-26T02:50:21.626Z,79.13
2019-01-26T02:52:55.666Z,84.77
2019-01-26T02:55:29.417Z,81.67
2019-01-26T02:58:06.712Z,88.17
2019-01-26T03:00:40.639Z,84.93
2019-01-26T03:03:14.413Z,87.67
2019-01-26T03:05:48.086Z,89.47
2019-01-26T03:08:21.856Z,91.70
2019-01-26T03:10:55.795Z,73.90
2019-01-26T03:13:29.407Z,83.03
2019-01-26T03:16:03.513Z,81.73
2019-01-26T03:18:55.351Z,87.10
2019-01-26T03:21:28.939Z,80.83
2019-01-26T03:24:09.022Z,100.83
2019-01-26T03:26:42.625Z,87.93
2019-01-26T03:29:19.254Z,89.50
2019-01-26T03:31:52.929Z,90.47
2019-01-26T03:34:36.696Z,89.70
2019-01-26T03:37:10.391Z,81.83
2019-01-26T03:39:46.987Z,81.17
2019-01-26T03:42:20.702Z,80.80
2019-01-26T03:44:54.395Z,71.33
2019-01-26T03:47:31.129Z,92.67
2019-01-26T03:50:07.992Z,91.20
2019-01-26T03:52:41.711Z,93.07
2019-01-26T03:55:18.346Z,94.00
2019-01-26T03:57:52.154Z,92.17
2019-01-26T04:00:27.291Z,85.53
2019-01-26T04:03:04.170Z,92.07
2019-01-26T04:05:37.837Z,90.80
2019-01-26T04:08:11.608Z,84.47
2019-01-26T04:10:45.366Z,90.50
2019-01-26T04:13:19.089Z,90.47
2019-01-26T04:15:52.821Z,79.90
2019-01-26T04:18:26.597Z,93.27
2019-01-26T04:21:00.228Z,90.33
2019-01-26T04:23:34.270Z,85.30
2019-01-26T04:26:17.272Z,90.87
2019-01-26T04:28:51.013Z,102.93
2019-01-26T04:31:36.690Z,100.87
2019-01-26T04:34:10.369Z,92.13
2019-01-26T04:36:44.006Z,96.53
2019-01-26T04:39:32.712Z,98.43
2019-01-26T04:42:06.483Z,104.27
2019-01-26T04:44:40.218Z,94.93
2019-01-26T04:47:13.921Z,94.43
2019-01-26T04:49:47.594Z,98.37
2019-01-26T04:52:21.302Z,95.53
2019-01-26T04:54:58.704Z,101.97
2019-01-26T04:57:32.351Z,100.77
2019-01-26T05:00:09.021Z,101.17
2019-01-26T05:02:42.734Z,92.77
2019-01-26T05:05:16.769Z,113.53
2019-01-26T05:07:50.543Z,102.03
2019-01-26T05:10:39.852Z,98.50
2019-01-26T05:13:29.980Z,93.03
2019-01-26T05:16:03.958Z,94.10
2019-01-26T05:18:37.664Z,88.80
2019-01-26T05:21:16.571Z,99.43
2019-01-26T05:23:50.645Z,106.37
2019-01-26T05:26:28.362Z,97.50
2019-01-26T05:29:02.067Z,107.27
2019-01-26T05:31:35.758Z,105.27
2019-01-26T05:34:12.330Z,103.33
2019-01-26T05:36:45.926Z,104.33
2019-01-26T05:39:43.748Z,97.63
2019-01-26T05:42:17.345Z,88.73
2019-01-26T05:44:50.992Z,95.13
2019-01-26T05:47:24.665Z,109.87
2019-01-26T05:49:58.697Z,99.90
2019-01-26T05:52:34.357Z,91.57
2019-01-26T05:55:09.524Z,85.93
2019-01-26T05:57:45.287Z,96.43
2019-01-26T06:00:23.338Z,97.00
2019-01-26T06:02:57.101Z,94.00
2019-01-26T06:05:31.152Z,92.30
2019-01-26T06:08:05.012Z,83.43
2019-01-26T06:10:45.990Z,93.80
2019-01-26T06:13:19.766Z,80.03
2019-01-26T06:15:55.789Z,83.40
2019-01-26T06:18:29.758Z,85.17
2019-01-26T06:21:03.346Z,85.33
2019-01-26T06:27:18.172Z,88.27
2019-01-26T06:29:51.758Z,85.33
2019-01-26T06:32:46.875Z,89.87
2019-01-26T06:35:20.618Z,87.47
2019-01-26T06:38:06.494Z,89.63
2019-01-26T06:40:40.227Z,93.37
2019-01-26T06:43:17.550Z,95.53
2019-01-26T06:45:51.218Z,80.70
2019-01-26T06:48:24.915Z,90.37
2019-01-26T06:51:17.836Z,86.60
2019-01-26T06:53:51.507Z,80.23
2019-01-26T06:56:25.146Z,79.40
2019-01-26T06:59:18.533Z,83.93
2019-01-26T07:02:17.623Z,85.73
2019-01-26T07:04:52.936Z,81.27
2019-01-26T07:07:26.636Z,85.50
2019-01-26T07:10:12.636Z,93.57
2019-01-26T07:12:46.695Z,78.27
2019-01-26T07:15:20.733Z,85.57
2019-01-26T07:17:59.102Z,90.30
2019-01-26T07:20:32.837Z,89.47
2019-01-26T07:23:31.197Z,78.63
2019-01-26T07:26:05.051Z,87.13
2019-01-26T07:28:38.824Z,95.57
2019-01-26T07:31:12.436Z,81.20
2019-01-26T07:33:46.247Z,90.17
2019-01-26T07:36:20.007Z,100.13
2019-01-26T07:38:54.125Z,83.10
2019-01-26T07:41:44.139Z,90.10
2019-01-26T07:44:18.122Z,84.97
2019-01-26T07:46:57.414Z,89.87
2019-01-26T07:49:31.076Z,98.30
2019-01-26T07:52:04.780Z,90.53
2019-01-26T07:54:38.538Z,90.33
2019-01-26T07:57:12.254Z,90.87
2019-01-26T07:59:53.750Z,105.03
2019-01-26T08:02:33.151Z,105.87
2019-01-26T08:05:11.818Z,104.27
2019-01-26T08:07:45.652Z,97.57
2019-01-26T08:10:26.069Z,96.97
2019-01-26T08:12:59.950Z,82.63
2019-01-26T08:15:34.466Z,111.53
2019-01-26T08:18:10.558Z,100.03
2019-01-26T08:20:46.424Z,101.33
2019-01-26T08:23:20.114Z,113.27
2019-01-26T08:25:53.896Z,101.37
2019-01-26T08:28:52.859Z,94.27
2019-01-26T08:31:26.623Z,96.67
2019-01-26T08:34:00.329Z,108.70
2019-01-26T08:36:34.009Z,93.90
2019-01-26T08:39:24.700Z,97.27
2019-01-26T08:42:24.371Z,90.87
2019-01-26T08:45:23.671Z,94.67
2019-01-26T08:47:57.702Z,86.20
2019-01-26T08:50:54.662Z,90.73
2019-01-26T08:56:25.709Z,98.27
2019-01-26T08:59:23.578Z,105.30
2019-01-26T09:05:10.734Z,85.70
2019-01-26T09:07:47.842Z,80.03
2019-01-26T09:10:21.570Z,73.93
2019-01-26T09:12:55.318Z,85.70
2019-01-26T09:15:29.370Z,82.13
2019-01-26T09:18:03.290Z,73.47
2019-01-26T09:20:38.133Z,85.60
2019-01-26T09:23:11.907Z,81.53
2019-01-26T09:25:50.897Z,90.20
2019-01-26T09:28:27.661Z,84.00
2019-01-26T09:31:01.279Z,82.67
2019-01-26T09:33:35.024Z,79.03
2019-01-26T09:36:14.051Z,74.87
2019-01-26T09:38:47.841Z,83.30
2019-01-26T09:41:26.996Z,85.57
2019-01-26T09:44:00.735Z,89.47
2019-01-26T09:46:34.473Z,79.93
2019-01-26T09:49:15.397Z,78.40
2019-01-26T09:51:49.141Z,86.10
2019-01-26T09:54:22.902Z,98.97
2019-01-26T09:56:59.694Z,80.60
2019-01-26T09:59:33.311Z,87.67
2019-01-26T10:02:07.066Z,82.67
2019-01-26T10:04:51.076Z,82.27
2019-01-26T10:07:24.692Z,83.20
2019-01-26T10:10:00.281Z,86.43
2019-01-26T10:12:33.879Z,94.70
2019-01-26T10:15:20.218Z,77.63
2019-01-26T10:17:53.940Z,82.47
2019-01-26T10:20:33.155Z,87.93
2019-01-26T10:23:06.877Z,92.60
2019-01-26T10:25:41.074Z,93.70
2019-01-26T10:28:15.026Z,83.77
2019-01-26T10:30:55.567Z,85.70
2019-01-26T10:33:29.297Z,83.20
2019-01-26T10:36:04.874Z,77.90
2019-01-26T10:38:41.420Z,78.83
2019-01-26T10:41:32.210Z,81.63
2019-01-26T10:44:09.742Z,84.67
2019-01-26T10:46:47.154Z,68.73
2019-01-26T10:49:20.753Z,72.67
2019-01-26T10:51:54.372Z,77.00
2019-01-26T10:54:28.096Z,65.13
2019-01-26T10:57:01.861Z,81.23
2019-01-26T10:59:35.916Z,77.63
2019-01-26T11:02:32.640Z,79.53
2019-01-26T11:05:13.015Z,82.20
2019-01-26T11:07:46.716Z,78.77
2019-01-26T11:10:20.443Z,82.27
2019-01-26T11:12:54.533Z,76.33
2019-01-26T11:15:28.304Z,76.13
2019-01-26T11:18:05.162Z,84.23
2019-01-26T11:20:38.763Z,80.37
2019-01-26T11:23:12.495Z,80.77
2019-01-26T11:25:46.196Z,100.50
2019-01-26T11:28:20.009Z,108.33
2019-01-26T11:31:05.811Z,76.37
2019-01-26T11:33:39.435Z,103.23
2019-01-26T11:36:13.144Z,99.93
2019-01-26T11:38:53.081Z,91.93
2019-01-26T11:41:27.077Z,89.10
2019-01-26T11:44:00.744Z,98.23
2019-01-26T11:46:34.503Z,93.30
2019-01-26T11:49:14.932Z,101.37
2019-01-26T11:52:07.800Z,106.77
2019-01-26T11:54:43.200Z,100.20
2019-01-26T11:57:18.156Z,105.17
2019-01-26T11:59:53.520Z,91.43
2019-01-26T12:02:39.124Z,96.63
2019-01-26T12:05:14.445Z,94.93
2019-01-26T12:08:05.715Z,96.70
2019-01-26T12:10:39.476Z,87.10
2019-01-26T12:13:19.346Z,87.40
2019-01-26T12:15:53.119Z,89.00
2019-01-26T12:18:26.856Z,90.23
2019-01-26T12:21:04.427Z,78.00
2019-01-26T12:23:38.091Z,65.63
2019-01-26T12:26:11.721Z,63.93
2019-01-26T12:29:05.304Z,69.37
2019-01-26T12:32:03.596Z,67.37
2019-01-26T12:34:38.523Z,69.17
2019-01-26T12:37:26.852Z,64.83
2019-01-26T12:40:00.556Z,59.10
2019-01-26T12:42:35.712Z,67.97
2019-01-26T12:45:27.541Z,73.07
2019-01-26T12:48:01.289Z,71.07
2019-01-26T12:50:37.359Z,69.87
2019-01-26T12:53:11.291Z,64.43
2019-01-26T12:55:48.521Z,62.20
2019-01-26T12:58:25.439Z,72.40
2019-01-26T13:00:59.171Z,74.57
2019-01-26T13:03:32.939Z,73.17
2019-01-26T13:06:06.869Z,63.17
2019-01-26T13:08:41.406Z,66.03
2019-01-26T13:11:36.731Z,60.97
2019-01-26T13:14:10.492Z,59.43
2019-01-26T13:17:10.403Z,53.27
2019-01-26T13:19:44.079Z,50.07
2019-01-26T13:22:18.063Z,46.87
2019-01-26T13:24:51.786Z,47.43
2019-01-26T13:27:28.464Z,45.93
2019-01-26T13:30:02.151Z,44.30
2019-01-26T13:32:40.287Z,44.40
2019-01-26T13:35:14.611Z,42.50
2019-01-26T13:38:06.813Z,45.77
2019-01-26T13:40:40.538Z,47.60
2019-01-26T13:43:18.151Z,49.17
2019-01-26T13:45:51.884Z,42.57
2019-01-26T13:48:30.546Z,49.67
2019-01-26T13:51:04.539Z,43.80
2019-01-26T13:53:41.709Z,43.30
2019-01-26T13:56:15.446Z,48.47
2019-01-26T13:58:49.094Z,43.07
2019-01-26T14:01:26.052Z,49.90
2019-01-26T14:04:00.169Z,46.03
2019-01-26T14:06:33.948Z,43.60
2019-01-26T14:09:08.075Z,43.33
2019-01-26T14:11:41.838Z,46.83
2019-01-26T14:14:15.839Z,59.93
2019-01-26T14:16:49.545Z,45.77
2019-01-26T14:19:23.189Z,43.13
2019-01-26T14:21:56.824Z,44.17
2019-01-26T14:24:33.970Z,48.23
2019-01-26T14:27:07.743Z,51.67
2019-01-26T14:29:45.522Z,43.47
2019-01-26T14:32:19.183Z,47.27
2019-01-26T14:35:01.146Z,42.63
2019-01-26T14:37:35.247Z,39.67
2019-01-26T14:40:12.097Z,38.10
2019-01-26T14:42:45.860Z,37.40
2019-01-26T14:46:00.367Z,35.57
2019-01-26T14:48:34.059Z,34.73
2019-01-26T14:51:07.779Z,37.63
2019-01-26T14:53:47.823Z,42.20
2019-01-26T14:56:21.646Z,42.43
2019-01-26T14:59:16.059Z,41.37
2019-01-26T15:01:49.655Z,41.37
2019-01-26T15:04:26.615Z,35.27
2019-01-26T15:07:00.307Z,33.93
2019-01-26T15:09:33.882Z,39.40
2019-01-26T15:12:09.011Z,32.23
2019-01-26T15:14:42.695Z,37.87
2019-01-26T15:17:18.693Z,31.23
2019-01-26T15:19:52.623Z,32.63
2019-01-26T15:22:45.706Z,26.67
2019-01-26T15:25:19.427Z,32.17
2019-01-26T15:27:53.209Z,26.33
2019-01-26T15:30:29.247Z,34.00
2019-01-26T15:33:03.110Z,30.80
2019-01-26T15:35:45.676Z,29.73
2019-01-26T15:38:19.366Z,39.23
2019-01-26T15:40:53.448Z,38.80
2019-01-26T15:43:27.138Z,37.80
2019-01-26T15:46:00.774Z,35.57
2019-01-26T15:48:34.458Z,45.93
2019-01-26T15:51:08.150Z,36.63
2019-01-26T15:53:42.712Z,44.70
2019-01-26T15:56:22.513Z,42.03
2019-01-26T15:59:03.646Z,43.57
2019-01-26T16:01:46.542Z,40.33
2019-01-26T16:04:26.225Z,38.03
2019-01-26T16:06:59.905Z,41.47
2019-01-26T16:09:33.922Z,40.23
2019-01-26T16:12:07.574Z,42.77
2019-01-26T16:14:41.269Z,44.13
2019-01-26T16:17:15.021Z,41.93
2019-01-26T16:19:48.781Z,42.53
2019-01-26T16:22:22.561Z,36.37
2019-01-26T16:24:56.325Z,42.30
2019-01-26T16:27:30.087Z,43.50
2019-01-26T16:30:05.551Z,42.67
2019-01-26T16:32:39.314Z,41.07
2019-01-26T16:35:18.129Z,45.57
2019-01-26T16:37:52.243Z,36.83
2019-01-26T16:40:31.813Z,38.03
2019-01-26T16:43:05.675Z,37.87
2019-01-26T16:45:39.507Z,48.03
2019-01-26T16:48:19.012Z,43.77
2019-01-26T16:51:04.893Z,55.30
2019-01-26T16:53:38.583Z,37.23
2019-01-26T16:56:13.348Z,44.30
2019-01-26T16:58:53.109Z,36.90
2019-01-26T17:01:33.280Z,43.67
2019-01-26T17:04:06.997Z,43.83
2019-01-26T17:06:43.820Z,44.40
2019-01-26T17:09:17.444Z,49.40
2019-01-26T17:11:51.222Z,44.20
2019-01-26T17:14:25.107Z,43.27
2019-01-26T17:16:58.696Z,47.33
2019-01-26T17:19:32.296Z,45.27
2019-01-26T17:22:09.083Z,50.80
2019-01-26T17:24:42.816Z,52.00
2019-01-26T17:27:16.511Z,46.77
2019-01-26T17:29:50.183Z,52.87
2019-01-26T17:32:23.812Z,50.17
2019-01-26T17:34:57.477Z,62.60
2019-01-26T17:37:46.404Z,67.47
2019-01-26T17:40:22.147Z,62.00
2019-01-26T17:43:00.533Z,63.90
2019-01-26T17:45:34.447Z,59.97
2019-01-26T17:48:08.306Z,55.50
2019-01-26T17:50:42.553Z,56.87
2019-01-26T17:53:25.361Z,65.97
2019-01-26T17:55:59.029Z,67.20
2019-01-26T17:58:33.033Z,61.43
2019-01-26T18:01:21.829Z,53.20
2019-01-26T18:03:55.626Z,50.60
2019-01-26T18:06:29.316Z,53.90
2019-01-26T18:09:04.799Z,61.00
2019-01-26T18:11:38.490Z,46.87
2019-01-26T18:14:12.336Z,44.00
2019-01-26T18:16:46.020Z,50.57
2019-01-26T18:19:19.613Z,42.03
2019-01-26T18:21:53.310Z,40.33
2019-01-26T18:24:26.974Z,45.47
2019-01-26T18:27:12.611Z,39.70
2019-01-26T18:29:46.309Z,40.63
2019-01-26T18:32:20.931Z,41.37
2019-01-26T18:34:54.954Z,37.90
2019-01-26T18:37:28.592Z,34.70
2019-01-26T18:40:27.123Z,35.80
2019-01-26T18:43:00.906Z,36.47
2019-01-26T18:45:34.658Z,30.90
2019-01-26T18:48:14.496Z,40.70
2019-01-26T18:50:56.112Z,34.60
2019-01-26T18:53:25.550Z,38.67
2019-01-26T18:55:59.212Z,31.50
2019-01-26T18:58:32.842Z,32.97
2019-01-26T19:01:15.936Z,28.73
2019-01-26T19:04:01.563Z,32.97
2019-01-26T19:06:35.262Z,31.87
2019-01-26T19:09:09.794Z,33.20
2019-01-26T19:11:43.415Z,34.00
2019-01-26T19:14:17.143Z,32.90
2019-01-26T19:16:54.511Z,29.60
2019-01-26T19:19:31.188Z,32.27
2019-01-26T19:22:05.338Z,29.87
2019-01-26T19:24:39.064Z,28.83
2019-01-26T19:27:13.631Z,32.47
2019-01-26T19:29:47.296Z,25.57
2019-01-26T19:32:27.324Z,27.43
2019-01-26T19:35:00.988Z,29.00
2019-01-26T19:37:34.608Z,26.70
2019-01-26T19:40:22.620Z,25.30
2019-01-26T19:43:08.466Z,28.83
2019-01-26T19:45:42.115Z,25.67
2019-01-26T19:48:28.058Z,29.37
2019-01-26T19:51:01.728Z,26.77
2019-01-26T19:53:37.402Z,29.33
2019-01-26T19:56:21.020Z,25.77
2019-01-26T19:58:55.015Z,25.10
2019-01-26T20:01:30.775Z,26.17
2019-01-26T20:04:11.042Z,28.10
2019-01-26T20:06:44.798Z,27.03
2019-01-26T20:09:31.070Z,24.40
2019-01-26T20:12:04.995Z,27.30
2019-01-26T20:14:38.673Z,24.90
2019-01-26T20:17:12.342Z,29.63
2019-01-26T20:20:11.782Z,24.60
2019-01-26T20:22:58.150Z,27.20
2019-01-26T20:25:31.953Z,26.33
2019-01-26T20:28:20.685Z,27.90
2019-01-26T20:30:57.670Z,26.53
2019-01-26T20:33:53.305Z,30.30
2019-01-26T20:36:27.141Z,28.00
2019-01-26T20:39:01.080Z,27.00
2019-01-26T20:41:34.866Z,25.20
2019-01-26T20:44:20.744Z,25.20
2019-01-26T20:46:54.456Z,21.47
2019-01-26T20:49:28.045Z,24.53
2019-01-26T20:52:01.692Z,25.17
2019-01-26T20:54:35.342Z,20.57
2019-01-26T20:57:16.388Z,21.43
2019-01-26T20:59:50.040Z,23.03
2019-01-26T21:02:26.085Z,17.03
2019-01-26T21:04:59.659Z,21.50
2019-01-26T21:07:35.990Z,19.90
2019-01-26T21:10:30.953Z,23.07
2019-01-26T21:13:05.405Z,23.27
2019-01-26T21:15:39.176Z,19.13
2019-01-26T21:18:18.884Z,25.17
2019-01-26T21:20:55.557Z,19.23
2019-01-26T21:23:32.404Z,24.13
2019-01-26T21:26:08.939Z,21.90
2019-01-26T21:28:43.790Z,18.30
2019-01-26T21:31:17.560Z,21.97
2019-01-26T21:33:56.050Z,21.40
2019-01-26T21:36:29.628Z,17.27
2019-01-26T21:39:05.311Z,20.67
2019-01-26T21:41:39.063Z,21.93
2019-01-26T21:44:12.667Z,19.43
2019-01-26T21:46:46.467Z,19.37
2019-01-26T21:49:20.056Z,19.67
2019-01-26T21:51:54.096Z,18.80
2019-01-26T21:54:35.704Z,21.47
2019-01-26T21:57:18.741Z,21.50
2019-01-26T21:59:55.822Z,21.10
2019-01-26T22:02:29.542Z,21.43
2019-01-26T22:05:03.202Z,15.90
2019-01-26T22:07:36.901Z,17.77
2019-01-26T22:10:24.819Z,19.73
2019-01-26T22:12:58.501Z,18.97
2019-01-26T22:15:32.263Z,24.37
2019-01-26T22:18:07.960Z,22.77
2019-01-26T22:20:42.557Z,20.13
2019-01-26T22:23:20.046Z,18.43
2019-01-26T22:25:53.699Z,20.67
2019-01-26T22:28:32.153Z,20.83
2019-01-26T22:31:05.888Z,20.57
2019-01-26T22:33:39.501Z,18.80
2019-01-26T22:36:13.175Z,16.03
2019-01-26T22:38:47.309Z,18.00
2019-01-26T22:41:20.991Z,16.73
2019-01-26T22:43:54.716Z,18.57
2019-01-26T22:46:28.492Z,17.20
2019-01-26T22:49:11.146Z,18.20
2019-01-26T22:51:44.823Z,16.57
2019-01-26T22:54:18.477Z,14.37
2019-01-26T22:57:04.296Z,17.03
2019-01-26T22:59:37.880Z,15.60
2019-01-26T23:02:13.613Z,21.07
2019-01-26T23:04:50.373Z,20.07
2019-01-26T23:07:27.513Z,18.63
2019-01-26T23:10:21.035Z,16.43
2019-01-26T23:13:00.892Z,17.23
2019-01-26T23:15:43.762Z,17.80
2019-01-26T23:18:23.368Z,13.83
2019-01-26T23:21:19.823Z,16.90
2019-01-26T23:24:20.774Z,16.93
2019-01-26T23:27:20.076Z,20.20
2019-01-26T23:30:13.278Z,19.20
2019-01-26T23:32:46.851Z,23.47
2019-01-26T23:35:20.628Z,18.43
2019-01-26T23:37:54.730Z,20.00
2019-01-26T23:40:28.485Z,22.13
2019-01-26T23:43:02.084Z,18.30
2019-01-26T23:45:35.850Z,22.43
2019-01-26T23:48:09.591Z,23.73
2019-01-26T23:50:43.264Z,20.83
2019-01-26T23:53:16.983Z,28.07
2019-01-26T23:55:54.046Z,27.17
2019-01-26T23:58:27.746Z,27.37
